createdAt,value
2022-12-07T00:01:47.255Z,94.24
2022-12-07T00:04:18.242Z,94.34
2022-12-07T00:06:51.679Z,94.46
2022-12-07T00:09:19.340Z,94.15
2022-12-07T00:11:51.078Z,93.72
2022-12-07T00:14:18.975Z,93.83
2022-12-07T00:16:49.247Z,94.03
2022-12-07T00:19:16.258Z,94.01
2022-12-07T00:21:43.818Z,93.96
2022-12-07T00:24:12.261Z,94.64
2022-12-07T00:26:41.608Z,94.01
2022-12-07T00:29:21.238Z,94.05
2022-12-07T00:31:48.358Z,93.02
2022-12-07T00:34:21.298Z,93.21
2022-12-07T00:36:48.812Z,93.00
2022-12-07T00:39:16.615Z,92.39
2022-12-07T00:41:43.728Z,92.62
2022-12-07T00:44:10.882Z,92.90
2022-12-07T00:46:37.870Z,92.84
2022-12-07T00:49:04.930Z,92.86
2022-12-07T00:51:31.912Z,91.85
2022-12-07T00:53:58.870Z,92.98
2022-12-07T00:56:29.526Z,92.97
2022-12-07T00:59:03.651Z,92.39
2022-12-07T01:01:37.863Z,91.88
2022-12-07T01:04:05.681Z,91.63
2022-12-07T01:06:33.219Z,91.90
2022-12-07T01:09:01.157Z,91.63
2022-12-07T01:11:31.371Z,91.59
2022-12-07T01:14:01.004Z,91.28
2022-12-07T01:16:31.822Z,91.23
2022-12-07T01:19:01.046Z,91.67
2022-12-07T01:21:36.844Z,91.92
2022-12-07T01:24:06.970Z,91.64
2022-12-07T01:26:34.245Z,91.94
2022-12-07T01:29:01.797Z,92.20
2022-12-07T01:31:30.083Z,91.97
2022-12-07T01:34:00.653Z,91.71
2022-12-07T01:36:37.700Z,91.57
2022-12-07T01:39:08.504Z,91.25
2022-12-07T01:41:41.370Z,91.76
2022-12-07T01:44:30.700Z,91.54
2022-12-07T01:47:04.528Z,91.13
2022-12-07T01:49:46.890Z,91.25
2022-12-07T01:52:32.221Z,91.46
2022-12-07T01:55:12.889Z,91.45
2022-12-07T01:57:49.460Z,90.70
2022-12-07T02:00:17.711Z,91.65
2022-12-07T02:03:19.476Z,91.66
2022-12-07T02:05:48.004Z,90.96
2022-12-07T02:08:16.041Z,91.31
2022-12-07T02:10:43.140Z,90.93
2022-12-07T02:13:34.285Z,91.37
2022-12-07T02:16:47.676Z,91.21
2022-12-07T02:19:41.675Z,91.64
2022-12-07T02:22:52.684Z,91.42
2022-12-07T02:25:51.248Z,90.49
2022-12-07T02:29:18.345Z,90.76
2022-12-07T02:32:12.265Z,90.59
2022-12-07T02:34:57.799Z,90.58
2022-12-07T02:37:59.406Z,90.40
2022-12-07T02:40:58.849Z,91.07
2022-12-07T02:43:42.781Z,91.24
2022-12-07T02:46:26.808Z,90.82
2022-12-07T02:48:55.850Z,90.61
2022-12-07T02:51:23.698Z,90.44
2022-12-07T02:53:50.708Z,90.64
2022-12-07T02:56:45.356Z,90.85
2022-12-07T03:00:08.856Z,89.88
2022-12-07T03:03:12.119Z,90.53
2022-12-07T03:06:07.425Z,89.82
2022-12-07T03:08:45.770Z,89.90
2022-12-07T03:11:24.309Z,90.57
2022-12-07T03:14:29.657Z,90.41
2022-12-07T03:17:25.413Z,90.84
2022-12-07T03:19:57.650Z,90.15
2022-12-07T03:22:29.833Z,90.91
2022-12-07T03:25:03.667Z,90.23
2022-12-07T03:27:43.495Z,90.22
2022-12-07T03:30:20.185Z,91.03
2022-12-07T03:33:11.848Z,90.83
2022-12-07T03:35:52.495Z,90.63
2022-12-07T03:38:36.949Z,90.77
2022-12-07T03:41:15.117Z,91.01
2022-12-07T03:43:43.455Z,91.42
2022-12-07T03:46:44.382Z,91.76
2022-12-07T03:49:38.236Z,91.68
2022-12-07T03:52:24.985Z,91.65
2022-12-07T03:55:12.475Z,92.02
2022-12-07T03:57:42.723Z,91.22
2022-12-07T04:00:12.428Z,91.90
2022-12-07T04:02:40.263Z,91.81
2022-12-07T04:05:08.029Z,91.88
2022-12-07T04:07:35.232Z,92.48
2022-12-07T04:10:02.649Z,92.23
2022-12-07T04:12:30.025Z,91.77
2022-12-07T04:14:56.998Z,92.17
2022-12-07T04:17:24.167Z,92.53
2022-12-07T04:19:51.141Z,92.37
2022-12-07T04:22:18.197Z,92.48
2022-12-07T04:24:45.218Z,93.27
2022-12-07T04:27:12.190Z,92.38
2022-12-07T04:29:39.292Z,92.71
2022-12-07T04:32:06.640Z,93.05
2022-12-07T04:34:33.835Z,93.54
2022-12-07T04:37:00.787Z,93.06
2022-12-07T04:39:32.051Z,93.64
2022-12-07T04:42:00.396Z,93.79
2022-12-07T04:44:29.765Z,93.47
2022-12-07T04:46:58.219Z,93.49
2022-12-07T04:49:26.551Z,94.11
2022-12-07T04:51:53.807Z,93.54
2022-12-07T04:54:21.172Z,94.10
2022-12-07T04:56:48.684Z,93.84
2022-12-07T04:59:17.440Z,93.58
2022-12-07T05:01:44.871Z,93.91
2022-12-07T05:04:11.990Z,94.25
2022-12-07T05:06:39.216Z,93.95
2022-12-07T05:09:06.672Z,94.64
2022-12-07T05:11:40.327Z,94.74
2022-12-07T05:14:21.727Z,94.19
2022-12-07T05:16:52.129Z,94.19
2022-12-07T05:19:20.340Z,94.53
2022-12-07T05:21:47.867Z,94.29
2022-12-07T05:24:18.402Z,94.35
2022-12-07T05:26:46.182Z,94.68
2022-12-07T05:29:18.010Z,94.14
2022-12-07T05:31:45.728Z,94.27
2022-12-07T05:34:13.852Z,94.61
2022-12-07T05:36:40.949Z,94.71
2022-12-07T05:39:08.620Z,94.59
2022-12-07T05:41:54.319Z,94.25
2022-12-07T05:44:21.402Z,94.41
2022-12-07T05:46:48.438Z,94.76
2022-12-07T05:49:15.646Z,94.46
2022-12-07T05:51:43.816Z,94.25
2022-12-07T05:54:11.001Z,94.64
2022-12-07T05:56:38.194Z,94.71
2022-12-07T05:59:23.509Z,94.32
2022-12-07T06:01:57.025Z,94.73
2022-12-07T06:04:27.561Z,94.74
2022-12-07T06:06:54.674Z,94.51
2022-12-07T06:09:24.377Z,94.62
2022-12-07T06:12:10.186Z,94.66
2022-12-07T06:14:37.495Z,94.25
2022-12-07T06:17:05.143Z,94.67
2022-12-07T06:19:32.208Z,94.58
2022-12-07T06:21:59.437Z,95.01
2022-12-07T06:24:26.985Z,94.36
2022-12-07T06:26:54.196Z,94.65
2022-12-07T06:29:21.363Z,95.14
2022-12-07T06:31:49.773Z,95.07
2022-12-07T06:34:21.337Z,94.96
2022-12-07T06:36:55.834Z,94.49
2022-12-07T06:39:26.958Z,94.49
2022-12-07T06:41:57.920Z,95.53
2022-12-07T06:44:25.211Z,94.46
2022-12-07T06:47:06.632Z,94.52
2022-12-07T06:49:40.925Z,94.16
2022-12-07T06:52:08.141Z,95.03
2022-12-07T06:54:35.150Z,94.26
2022-12-07T06:57:02.154Z,94.38
2022-12-07T06:59:29.160Z,94.17
2022-12-07T07:01:56.199Z,94.42
2022-12-07T07:04:23.413Z,94.49
2022-12-07T07:06:52.929Z,94.39
2022-12-07T07:09:23.712Z,94.57
2022-12-07T07:11:51.877Z,93.83
2022-12-07T07:14:20.002Z,94.33
2022-12-07T07:16:47.122Z,94.11
2022-12-07T07:19:17.344Z,93.73
2022-12-07T07:21:44.368Z,94.17
2022-12-07T07:24:11.671Z,94.63
2022-12-07T07:26:38.621Z,94.22
2022-12-07T07:29:05.651Z,94.66
2022-12-07T07:31:33.008Z,93.60
2022-12-07T07:33:59.971Z,94.05
2022-12-07T07:36:27.044Z,93.89
2022-12-07T07:38:54.111Z,93.30
2022-12-07T07:41:21.173Z,93.89
2022-12-07T07:43:48.385Z,93.80
2022-12-07T07:46:18.152Z,93.48
2022-12-07T07:48:45.107Z,93.84
2022-12-07T07:51:12.331Z,94.29
2022-12-07T07:53:39.381Z,93.94
2022-12-07T07:56:06.460Z,93.64
2022-12-07T07:58:33.609Z,93.52
2022-12-07T08:01:08.093Z,93.10
2022-12-07T08:03:35.757Z,93.26
2022-12-07T08:06:06.112Z,93.10
2022-12-07T08:08:33.688Z,93.39
2022-12-07T08:11:02.343Z,93.43
2022-12-07T08:13:31.467Z,92.85
2022-12-07T08:16:03.847Z,93.02
2022-12-07T08:18:31.300Z,92.87
2022-12-07T08:21:02.169Z,93.20
2022-12-07T08:23:37.514Z,92.57
2022-12-07T08:26:11.565Z,92.88
2022-12-07T08:28:41.184Z,93.14
2022-12-07T08:31:15.657Z,92.75
2022-12-07T08:33:43.253Z,92.63
2022-12-07T08:36:13.125Z,92.36
2022-12-07T08:38:47.841Z,92.38
2022-12-07T08:41:23.680Z,92.35
2022-12-07T08:43:52.503Z,92.12
2022-12-07T08:46:29.557Z,92.31
2022-12-07T08:49:05.714Z,92.05
2022-12-07T08:51:33.677Z,92.15
2022-12-07T08:54:05.466Z,92.11
2022-12-07T08:56:32.537Z,91.46
2022-12-07T08:58:59.651Z,91.08
2022-12-07T09:01:30.319Z,90.71
2022-12-07T09:03:57.392Z,90.74
2022-12-07T09:06:26.735Z,90.33
2022-12-07T09:09:00.281Z,90.38
2022-12-07T09:11:29.026Z,89.84
2022-12-07T09:13:56.886Z,90.00
2022-12-07T09:16:24.121Z,90.50
2022-12-07T09:18:51.167Z,90.20
2022-12-07T09:21:18.304Z,90.04
2022-12-07T09:23:45.689Z,89.66
2022-12-07T09:26:12.970Z,90.36
2022-12-07T09:28:40.551Z,90.09
2022-12-07T09:31:23.158Z,90.67
2022-12-07T09:33:58.135Z,90.06
2022-12-07T09:36:26.691Z,89.05
2022-12-07T09:38:53.932Z,88.35
2022-12-07T09:41:26.188Z,88.33
2022-12-07T09:43:59.388Z,87.90
2022-12-07T09:46:39.647Z,87.60
2022-12-07T09:49:12.683Z,87.58
2022-12-07T09:51:41.959Z,87.56
2022-12-07T09:54:14.408Z,87.61
2022-12-07T09:56:41.654Z,87.63
2022-12-07T09:59:19.415Z,87.24
2022-12-07T10:01:51.118Z,87.28
2022-12-07T10:04:26.646Z,88.02
2022-12-07T10:06:56.014Z,87.49
2022-12-07T10:09:23.836Z,86.82
2022-12-07T10:12:12.312Z,86.22
2022-12-07T10:15:18.739Z,87.06
2022-12-07T10:17:52.475Z,86.73
2022-12-07T10:20:31.161Z,85.45
2022-12-07T10:23:20.069Z,86.10
2022-12-07T10:25:49.072Z,84.97
2022-12-07T10:28:19.302Z,83.83
2022-12-07T10:30:57.873Z,83.13
2022-12-07T10:33:59.279Z,82.53
2022-12-07T10:36:39.561Z,83.66
2022-12-07T10:39:19.011Z,83.55
2022-12-07T10:42:02.964Z,84.06
2022-12-07T10:44:34.034Z,83.18
2022-12-07T10:47:21.841Z,84.04
2022-12-07T10:50:24.121Z,84.68
2022-12-07T10:53:24.524Z,84.53
2022-12-07T10:56:54.093Z,84.45
2022-12-07T10:59:48.662Z,84.63
2022-12-07T11:02:53.341Z,84.40
2022-12-07T11:05:54.549Z,84.89
2022-12-07T11:09:38.613Z,85.21
2022-12-07T11:12:44.026Z,84.63
2022-12-07T11:15:46.567Z,84.83
2022-12-07T11:19:00.228Z,85.22
2022-12-07T11:21:48.960Z,85.46
2022-12-07T11:24:42.739Z,85.02
2022-12-07T11:28:02.778Z,85.00
2022-12-07T11:30:59.875Z,85.92
2022-12-07T11:33:54.774Z,85.78
2022-12-07T11:36:49.665Z,86.03
2022-12-07T11:39:40.287Z,85.56
2022-12-07T11:42:37.792Z,86.06
2022-12-07T11:45:29.844Z,86.15
2022-12-07T11:48:29.066Z,85.97
2022-12-07T11:51:01.620Z,86.07
2022-12-07T11:53:47.728Z,85.92
2022-12-07T11:56:22.271Z,85.90
2022-12-07T11:59:05.259Z,85.89
2022-12-07T12:01:37.503Z,85.47
2022-12-07T12:04:10.516Z,86.11
2022-12-07T12:06:44.425Z,86.06
2022-12-07T12:09:41.340Z,86.12
2022-12-07T12:17:02.177Z,85.39
2022-12-07T12:20:19.248Z,85.29
2022-12-07T12:23:12.925Z,85.09
2022-12-07T12:25:55.743Z,85.39
2022-12-07T12:29:06.113Z,85.19
2022-12-07T12:31:43.180Z,84.50
2022-12-07T12:34:49.855Z,84.45
2022-12-07T12:37:42.818Z,84.57
2022-12-07T12:40:32.239Z,84.92
2022-12-07T12:43:00.074Z,84.79
2022-12-07T12:45:32.684Z,84.93
2022-12-07T12:48:25.330Z,85.06
2022-12-07T12:51:42.138Z,85.39
2022-12-07T12:54:20.051Z,84.89
2022-12-07T12:57:22.585Z,85.00
2022-12-07T12:59:52.435Z,85.20
2022-12-07T13:02:50.874Z,85.29
2022-12-07T13:05:23.844Z,85.59
2022-12-07T13:08:21.710Z,86.02
2022-12-07T13:10:49.443Z,86.36
2022-12-07T13:13:18.124Z,86.19
2022-12-07T13:16:08.962Z,86.14
2022-12-07T13:18:39.507Z,86.63
2022-12-07T13:21:09.114Z,85.94
2022-12-07T13:23:46.091Z,85.93
2022-12-07T13:26:19.712Z,86.39
2022-12-07T13:29:10.974Z,86.29
2022-12-07T13:31:59.894Z,86.58
2022-12-07T13:34:40.946Z,86.23
2022-12-07T13:37:33.651Z,86.75
2022-12-07T13:40:22.999Z,87.00
2022-12-07T13:43:15.493Z,86.52
2022-12-07T13:45:49.179Z,86.83
2022-12-07T13:48:45.231Z,86.07
2022-12-07T13:51:29.469Z,85.85
2022-12-07T13:54:09.934Z,85.92
2022-12-07T13:56:37.720Z,86.29
2022-12-07T13:59:24.115Z,86.81
2022-12-07T14:01:53.216Z,86.17
2022-12-07T14:04:37.607Z,86.26
2022-12-07T14:07:29.221Z,85.74
2022-12-07T14:10:05.427Z,85.50
2022-12-07T14:12:37.205Z,85.16
2022-12-07T14:15:23.063Z,85.17
2022-12-07T14:17:56.212Z,84.19
2022-12-07T14:20:44.391Z,83.65
2022-12-07T14:23:28.074Z,84.72
2022-12-07T14:26:05.204Z,83.56
2022-12-07T14:28:38.882Z,83.92
2022-12-07T14:31:24.864Z,83.84
2022-12-07T14:33:53.325Z,83.91
2022-12-07T14:36:20.309Z,84.26
2022-12-07T14:38:48.129Z,84.19
2022-12-07T14:41:41.030Z,84.67
2022-12-07T14:44:35.505Z,84.93
2022-12-07T14:49:48.683Z,85.98
2022-12-07T14:55:32.225Z,86.54
2022-12-07T14:57:59.838Z,87.23
2022-12-07T15:00:29.612Z,87.61
2022-12-07T15:02:57.602Z,88.43
2022-12-07T15:05:24.863Z,89.12
2022-12-07T15:07:53.124Z,88.80
2022-12-07T15:10:34.622Z,89.47
2022-12-07T15:13:22.549Z,89.17
2022-12-07T15:15:53.112Z,90.08
2022-12-07T15:18:22.560Z,89.70
2022-12-07T15:20:51.205Z,89.63
2022-12-07T15:23:21.157Z,89.89
2022-12-07T15:25:50.058Z,89.50
2022-12-07T15:28:17.463Z,89.62
2022-12-07T15:30:46.241Z,88.92
2022-12-07T15:33:14.659Z,89.57
2022-12-07T15:35:44.530Z,89.77
2022-12-07T15:38:12.187Z,90.44
2022-12-07T15:40:39.273Z,90.00
2022-12-07T15:43:26.628Z,90.23
2022-12-07T15:45:53.789Z,89.93
2022-12-07T15:48:29.259Z,89.69
2022-12-07T15:51:08.625Z,89.37
2022-12-07T15:53:36.524Z,89.16
2022-12-07T15:56:09.083Z,87.54
2022-12-07T15:58:36.529Z,88.09
2022-12-07T16:01:16.915Z,86.93
2022-12-07T16:03:47.276Z,88.02
2022-12-07T16:06:19.140Z,88.32
2022-12-07T16:09:09.595Z,91.19
2022-12-07T16:11:36.596Z,92.21
2022-12-07T16:14:03.779Z,93.68
2022-12-07T16:16:31.565Z,94.58
2022-12-07T16:18:59.196Z,94.66
2022-12-07T16:21:26.319Z,94.78
2022-12-07T16:23:53.723Z,94.76
2022-12-07T16:26:23.464Z,94.32
2022-12-07T16:28:56.297Z,94.80
2022-12-07T16:31:28.289Z,94.12
2022-12-07T16:33:58.707Z,94.77
2022-12-07T16:37:02.160Z,94.47
2022-12-07T16:39:15.481Z,93.69
2022-12-07T16:41:42.651Z,93.46
2022-12-07T16:44:13.574Z,93.95
2022-12-07T16:46:42.101Z,93.42
2022-12-07T16:49:14.787Z,93.08
2022-12-07T16:51:43.926Z,94.03
2022-12-07T16:54:14.577Z,93.80
2022-12-07T16:56:42.311Z,93.64
2022-12-07T16:59:09.566Z,93.45
2022-12-07T17:01:37.064Z,93.95
2022-12-07T17:04:05.208Z,93.23
2022-12-07T17:06:32.848Z,93.09
2022-12-07T17:09:00.215Z,92.92
2022-12-07T17:11:34.220Z,92.70
2022-12-07T17:14:20.083Z,92.47
2022-12-07T17:16:47.784Z,91.86
2022-12-07T17:19:17.664Z,92.80
2022-12-07T17:21:45.178Z,91.85
2022-12-07T17:24:17.170Z,92.63
2022-12-07T17:26:46.914Z,92.06
2022-12-07T17:29:17.361Z,91.75
2022-12-07T17:31:50.881Z,91.53
2022-12-07T17:34:19.182Z,91.42
2022-12-07T17:36:47.809Z,91.14
2022-12-07T17:39:19.288Z,91.14
2022-12-07T17:42:05.053Z,92.18
2022-12-07T17:44:33.049Z,90.93
2022-12-07T17:47:02.602Z,91.04
2022-12-07T17:49:30.002Z,90.82
2022-12-07T17:52:15.878Z,91.13
2022-12-07T17:54:43.428Z,91.52
2022-12-07T17:57:10.505Z,91.48
2022-12-07T17:59:37.956Z,91.67
2022-12-07T18:02:05.604Z,91.15
2022-12-07T18:04:33.292Z,90.77
2022-12-07T18:07:00.323Z,91.57
2022-12-07T18:09:27.619Z,91.53
2022-12-07T18:11:54.634Z,91.83
2022-12-07T18:14:21.730Z,91.44
2022-12-07T18:16:49.940Z,91.32
2022-12-07T18:19:17.449Z,91.36
2022-12-07T18:21:45.905Z,91.14
2022-12-07T18:24:15.936Z,90.84
2022-12-07T18:26:44.955Z,90.92
2022-12-07T18:29:17.279Z,90.95
2022-12-07T18:31:47.392Z,90.98
2022-12-07T18:34:17.802Z,91.72
2022-12-07T18:36:49.453Z,90.70
2022-12-07T18:39:20.080Z,90.83
2022-12-07T18:41:47.699Z,91.00
2022-12-07T18:44:16.540Z,90.76
2022-12-07T18:46:43.908Z,91.55
2022-12-07T18:49:15.742Z,91.24
2022-12-07T18:51:43.595Z,91.71
2022-12-07T18:54:10.757Z,91.62
2022-12-07T18:56:38.024Z,91.83
2022-12-07T18:59:24.038Z,91.83
2022-12-07T19:01:55.085Z,91.00
2022-12-07T19:04:22.768Z,91.31
2022-12-07T19:06:51.170Z,91.32
2022-12-07T19:09:18.958Z,91.27
2022-12-07T19:11:52.418Z,91.74
2022-12-07T19:14:27.581Z,90.92
2022-12-07T19:17:02.855Z,90.92
2022-12-07T19:19:45.429Z,90.99
2022-12-07T19:22:18.745Z,91.95
2022-12-07T19:24:52.102Z,91.67
2022-12-07T19:27:21.874Z,92.14
2022-12-07T19:29:49.903Z,91.19
2022-12-07T19:32:18.417Z,90.86
2022-12-07T19:34:47.973Z,91.05
2022-12-07T19:37:16.338Z,91.24
2022-12-07T19:39:43.890Z,91.11
2022-12-07T19:42:11.876Z,90.91
2022-12-07T19:44:38.918Z,90.90
2022-12-07T19:47:06.916Z,90.33
2022-12-07T19:49:36.705Z,91.15
2022-12-07T19:52:08.710Z,91.07
2022-12-07T19:54:37.406Z,90.75
2022-12-07T19:57:07.247Z,90.96
2022-12-07T19:59:35.205Z,91.53
2022-12-07T20:02:02.333Z,91.01
2022-12-07T20:04:35.244Z,90.87
2022-12-07T20:07:03.146Z,90.95
2022-12-07T20:09:30.176Z,91.14
2022-12-07T20:12:15.828Z,91.21
2022-12-07T20:14:42.818Z,91.46
2022-12-07T20:17:09.881Z,91.70
2022-12-07T20:19:40.741Z,91.62
2022-12-07T20:22:08.096Z,90.80
2022-12-07T20:24:36.184Z,90.94
2022-12-07T20:27:05.021Z,91.58
2022-12-07T20:29:33.233Z,91.05
2022-12-07T20:32:00.322Z,91.38
2022-12-07T20:34:27.340Z,90.99
2022-12-07T20:36:55.568Z,91.38
2022-12-07T20:39:23.510Z,91.28
2022-12-07T20:42:10.046Z,90.77
2022-12-07T20:44:37.256Z,91.05
2022-12-07T20:47:06.648Z,91.39
2022-12-07T20:49:34.009Z,91.46
2022-12-07T20:52:01.380Z,92.01
2022-12-07T20:54:28.394Z,91.60
2022-12-07T20:56:55.528Z,91.34
2022-12-07T20:59:22.673Z,91.67
2022-12-07T21:01:49.803Z,91.30
2022-12-07T21:04:18.099Z,92.27
2022-12-07T21:06:45.616Z,91.61
2022-12-07T21:09:12.712Z,91.61
2022-12-07T21:11:40.500Z,91.98
2022-12-07T21:14:08.818Z,91.89
2022-12-07T21:16:36.046Z,92.23
2022-12-07T21:19:05.036Z,91.72
2022-12-07T21:21:34.458Z,91.49
2022-12-07T21:24:04.635Z,91.67
2022-12-07T21:26:36.167Z,91.65
2022-12-07T21:29:07.051Z,92.73
2022-12-07T21:31:37.813Z,92.81
2022-12-07T21:34:05.580Z,93.12
2022-12-07T21:36:33.919Z,92.46
2022-12-07T21:39:01.599Z,92.68
2022-12-07T21:41:35.077Z,92.65
2022-12-07T21:44:05.759Z,92.82
2022-12-07T21:46:34.510Z,92.89
2022-12-07T21:49:12.729Z,92.76
2022-12-07T21:51:42.834Z,92.64
2022-12-07T21:54:12.213Z,92.76
2022-12-07T21:56:42.526Z,92.72
2022-12-07T21:59:18.233Z,92.96
2022-12-07T22:01:47.326Z,92.68
2022-12-07T22:04:26.722Z,92.84
2022-12-07T22:06:54.587Z,93.03
2022-12-07T22:09:24.623Z,92.76
2022-12-07T22:11:52.291Z,93.17
2022-12-07T22:14:38.167Z,93.34
2022-12-07T22:17:05.176Z,93.01
2022-12-07T22:19:32.193Z,93.02
2022-12-07T22:21:59.261Z,92.67
2022-12-07T22:24:26.527Z,92.70
2022-12-07T22:26:53.589Z,92.72
2022-12-07T22:29:21.010Z,92.67
2022-12-07T22:31:53.408Z,92.74
2022-12-07T22:34:21.450Z,92.09
2022-12-07T22:36:48.602Z,92.61
2022-12-07T22:39:15.620Z,93.29
2022-12-07T22:41:42.677Z,92.47
2022-12-07T22:44:10.601Z,92.06
2022-12-07T22:46:38.317Z,92.19
2022-12-07T22:49:06.355Z,92.41
2022-12-07T22:51:37.346Z,92.63
2022-12-07T22:54:10.736Z,92.63
2022-12-07T22:56:38.603Z,93.39
2022-12-07T22:59:07.490Z,93.05
2022-12-07T23:01:35.436Z,92.81
2022-12-07T23:04:02.552Z,93.20
2022-12-07T23:06:33.606Z,92.58
2022-12-07T23:09:06.012Z,92.43
2022-12-07T23:11:56.227Z,92.89
2022-12-07T23:14:30.590Z,92.92
2022-12-07T23:16:58.183Z,92.86
2022-12-07T23:19:26.269Z,92.81
2022-12-07T23:21:53.364Z,92.58
2022-12-07T23:24:20.421Z,92.03
2022-12-07T23:26:47.743Z,92.38
2022-12-07T23:29:17.790Z,92.48
2022-12-07T23:31:47.607Z,92.25
2022-12-07T23:34:14.763Z,92.38
2022-12-07T23:36:41.889Z,92.27
2022-12-07T23:39:10.577Z,91.86
2022-12-07T23:41:37.947Z,91.77
2022-12-07T23:44:05.280Z,92.66
2022-12-07T23:46:33.694Z,92.44
2022-12-07T23:49:03.878Z,92.26
2022-12-07T23:51:32.232Z,92.37
2022-12-07T23:54:04.043Z,92.19
2022-12-07T23:56:34.053Z,92.10
2022-12-07T23:59:02.745Z,92.58
